• Join FlightAware (Why Join?)
  • Login
  • US Flag 
12:25AM EDT


 

Airport Tracker/Info


-or-


 

Live Flight TrackerFlight Track Log ✈ UAL653 ✈ 20-Jul-2013 ✈ KSFO - KLAX

Flight Track Log - Related Links

Times and Time Zones

All times are in EDT time to prevent confusion due to time zone crossing. See the UAL653 flight status page for this flight to view local times or setup timezone preferences in your user account.

Time Position Orientation Groundspeed Altitude Reporting Facility
EDT Latitude Longitude Course Direction KTS MPH feet Rate Location/Type
02:19PM 37.6333 -122.3667 136° Southeast 150 173 700  Level Northern Cal TRACON
02:20PM 37.6833 -122.3667 360° North 221 254 2,700 2,340 Climbing Northern Cal TRACON
02:21PM 37.7333 -122.4167 322° Northwest 271 312 5,400 2,700 Climbing Northern Cal TRACON
02:22PM 37.4839 -122.4661 218° Southwest  Level FlightAware Approximate
02:23PM 37.4330 -122.3658 113° Southeast  Level FlightAware Approximate
02:24PM 37.3817 -122.2647 136° Southeast  Level FlightAware Approximate
02:24PM 37.6003 -122.5325 215° Southwest 286 329 11,400  Level Oakland Center
02:25PM 37.3120 -122.1810 136° Southeast  Level FlightAware Approximate
02:25PM 37.5225 -122.5225 174° South 286 329 14,200  Level Oakland Center
02:26PM 37.4286 -122.4667 155° Southeast 343 395 15,900 2,040 Climbing Oakland Center
02:27PM 37.3617 -122.3747 132° Southeast 360 414 18,500 2,280 Climbing Oakland Center
02:28PM 37.2911 -122.2758 132° Southeast 378 435 20,600 2,040 Climbing Oakland Center
02:29PM 37.2203 -122.1728 131° Southeast 390 449 22,800 1,980 Climbing Oakland Center
02:30PM 37.1467 -122.0675 131° Southeast 400 460 24,700 1,740 Climbing Oakland Center
02:31PM 37.0703 -121.9583 131° Southeast 413 475 26,500 1,800 Climbing Oakland Center
02:32PM 36.9939 -121.8489 131° Southeast 419 482 28,400 1,800 Climbing Oakland Center
02:33PM 36.8964 -121.7133 132° Southeast 434 499 30,200 1,620 Climbing Oakland Center
02:34PM 36.8142 -121.5964 131° Southeast 447 514 31,800 1,260 Climbing Oakland Center
02:35PM 36.7428 -121.4917 130° Southeast 453 521 32,900 540 Climbing Oakland Center
02:36PM 36.6428 -121.3503 131° Southeast 456 525 33,000  Climbing Oakland Center
02:37PM 36.5642 -121.2389 131° Southeast 432 497 32,900  Descending Oakland Center
02:38PM 36.4850 -121.1292 132° Southeast 425 489 33,000  Climbing Oakland Center
02:39PM 36.4064 -121.0197 132° Southeast 425 489 33,000  Level Oakland Center
02:40PM 36.3269 -120.9103 132° Southeast 428 493 33,000  Level Oakland Center
02:41PM 36.2481 -120.7994 131° Southeast 426 490 33,000  Level Oakland Center
02:42PM 36.1692 -120.6886 131° Southeast 428 493 33,000  Level Oakland Center
02:43PM 36.0889 -120.5794 132° Southeast 428 493 33,000  Level Oakland Center
02:44PM 35.9928 -120.4483 132° Southeast 426 490 33,000  Level Oakland Center
02:45PM 35.9136 -120.3386 132° Southeast 428 493 33,000 -60 Level Oakland Center
02:46PM 35.8336 -120.2297 132° Southeast 425 489 32,900  Descending Oakland Center
02:47PM 35.7536 -120.1214 132° Southeast 424 488 33,000  Climbing Oakland Center
02:48PM 35.6728 -120.0119 132° Southeast 427 491 33,000  Level Oakland Center
02:49PM 35.5806 -119.9175 140° Southeast 425 489 33,000  Level Oakland Center
02:50PM 35.4819 -119.8328 145° Southeast 428 493 33,000 -480 Level Oakland Center
02:51PM 35.3833 -119.7486 145° Southeast 428 493 32,100 -1,140 Descending Oakland Center
02:52PM 35.2853 -119.6647 145° Southeast 429 494 30,700 -1,320 Descending Oakland Center
02:53PM 35.1850 -119.5786 145° Southeast 434 499 29,500 -1,080 Descending Oakland Center
02:54PM 35.0853 -119.4958 146° Southeast 433 498 28,600 -1,020 Descending Oakland Center
02:55PM 34.9683 -119.3978 145° Southeast 426 490 27,500 -1,080 Descending Oakland Center
02:56PM 34.8736 -119.3153 144° Southeast 420 483 26,500 -960 Descending Oakland Center
02:57PM 34.7786 -119.2342 145° Southeast 417 480 25,600 -1,440 Descending Oakland Center
02:58PM 34.6836 -119.1553 146° Southeast 415 478 23,600 -1,800 Descending Oakland Center
03:00PM 34.5856 -119.0739 146° Southeast 409 471 21,400 -2,040 Descending Los Angeles Center
03:01PM 34.4794 -118.9858 146° Southeast 383 441 18,900 -2,340 Descending Los Angeles Center
03:02PM 34.3817 -118.9033 145° Southeast 345 397 16,600 -2,100 Descending Los Angeles Center
03:03PM 34.2975 -118.8583 156° South 335 386 14,700 -1,980 Descending Los Angeles Center
03:04PM 34.2056 -118.8258 164° South 343 395 12,600 -1,980 Descending Los Angeles Center
03:05PM 34.1150 -118.7919 163° South 343 395 10,700 -1,260 Descending Los Angeles Center
03:06PM 34.0594 -118.6911 124° Southeast 325 374 10,000 -480 Descending Los Angeles Center
03:07PM 34.0378 -118.5875 104° East 321 369 9,800 -1,080 Descending Los Angeles Center
03:08PM 34.0172 -118.4953 105° East 286 329 7,800 -1,980 Descending Los Angeles Center
03:09PM 34.0092 -118.4000 96° East 274 315 5,800 -1,980 Descending Los Angeles Center
03:10PM 34.0197 -118.3119 82° East 267 307 3,800 -1,500 Descending Los Angeles Center
03:11PM 34.0064 -118.2369 102° East 261 300 2,700 -1,080 Descending Los Angeles Center